createdAt,value
2022-12-28T00:04:15.834Z,73.34
2022-12-28T00:09:19.343Z,73.04
2022-12-28T00:14:22.932Z,73.22
2022-12-28T00:19:26.316Z,73.35
2022-12-28T00:24:29.840Z,73.00
2022-12-28T00:29:37.985Z,72.97
2022-12-28T00:34:41.182Z,72.98
2022-12-28T00:39:46.718Z,72.57
2022-12-28T00:44:51.623Z,72.90
2022-12-28T00:49:55.146Z,72.52
2022-12-28T00:55:00.136Z,72.61
2022-12-28T01:00:04.444Z,72.56
2022-12-28T01:05:08.825Z,73.13
2022-12-28T01:10:12.784Z,73.27
2022-12-28T01:15:17.099Z,73.07
2022-12-28T01:20:20.628Z,72.79
2022-12-28T01:25:24.273Z,72.66
2022-12-28T01:30:28.562Z,72.87
2022-12-28T01:35:32.279Z,73.15
2022-12-28T01:40:36.679Z,73.05
2022-12-28T01:45:44.157Z,73.36
2022-12-28T01:50:49.508Z,73.17
2022-12-28T01:55:53.075Z,73.41
2022-12-28T02:00:56.783Z,73.83
2022-12-28T02:06:04.461Z,73.70
2022-12-28T02:11:17.124Z,73.70
2022-12-28T02:16:20.924Z,73.55
2022-12-28T02:21:35.231Z,73.88
2022-12-28T02:27:24.882Z,74.18
2022-12-28T02:32:59.201Z,74.46
2022-12-28T02:38:25.387Z,74.27
2022-12-28T02:43:29.121Z,74.13
2022-12-28T02:48:44.449Z,74.52
2022-12-28T02:54:03.189Z,74.04
2022-12-28T02:59:18.635Z,74.05
2022-12-28T03:04:45.773Z,73.68
2022-12-28T03:09:54.348Z,73.51
2022-12-28T03:15:07.032Z,73.40
2022-12-28T03:20:21.693Z,73.19
2022-12-28T03:25:30.050Z,73.06
2022-12-28T03:30:37.254Z,73.04
2022-12-28T03:35:59.760Z,72.82
2022-12-28T03:41:13.727Z,72.94
2022-12-28T03:46:53.330Z,72.96
2022-12-28T03:52:01.059Z,72.91
2022-12-28T03:57:05.277Z,73.08
2022-12-28T04:02:15.454Z,72.95
2022-12-28T04:07:19.222Z,73.30
2022-12-28T04:12:25.477Z,73.61
2022-12-28T04:17:47.236Z,73.81
2022-12-28T04:22:51.062Z,73.79
2022-12-28T04:27:54.798Z,74.16
2022-12-28T04:33:21.716Z,74.39
2022-12-28T04:38:25.482Z,74.39
2022-12-28T04:43:29.909Z,74.39
2022-12-28T04:48:34.776Z,74.72
2022-12-28T04:53:40.095Z,74.65
2022-12-28T04:58:44.043Z,74.89
2022-12-28T05:03:54.404Z,75.28
2022-12-28T05:09:00.360Z,75.15
2022-12-28T05:14:03.630Z,74.96
2022-12-28T05:19:10.002Z,75.42
2022-12-28T05:24:13.561Z,75.67
2022-12-28T05:29:17.375Z,75.23
2022-12-28T05:34:20.999Z,75.30
2022-12-28T05:39:24.676Z,75.80
2022-12-28T05:44:30.504Z,75.56
2022-12-28T05:49:34.132Z,76.01
2022-12-28T05:54:37.637Z,75.92
2022-12-28T05:59:42.595Z,76.01
2022-12-28T06:04:46.057Z,75.54
2022-12-28T06:09:49.581Z,75.89
2022-12-28T06:14:53.409Z,75.86
2022-12-28T06:19:58.831Z,75.91
2022-12-28T06:25:02.546Z,75.63
2022-12-28T06:30:07.895Z,75.55
2022-12-28T06:35:11.504Z,75.55
2022-12-28T06:40:15.413Z,75.50
2022-12-28T06:45:19.088Z,75.48
2022-12-28T06:50:22.693Z,74.96
2022-12-28T06:55:27.487Z,75.38
2022-12-28T07:00:30.902Z,74.99
2022-12-28T07:05:34.585Z,74.95
2022-12-28T07:10:38.153Z,75.05
2022-12-28T07:15:43.251Z,74.54
2022-12-28T07:20:46.813Z,74.72
2022-12-28T07:25:50.262Z,74.26
2022-12-28T07:30:54.546Z,74.15
2022-12-28T07:35:59.116Z,74.04
2022-12-28T07:41:05.424Z,74.03
2022-12-28T07:46:12.064Z,73.82
2022-12-28T07:51:34.065Z,73.71
2022-12-28T08:01:40.558Z,73.38
2022-12-28T08:06:45.623Z,72.99
2022-12-28T08:11:49.823Z,73.08
2022-12-28T08:16:53.700Z,72.89
2022-12-28T08:21:57.193Z,72.87
2022-12-28T08:27:00.817Z,73.02
2022-12-28T08:32:05.358Z,72.36
2022-12-28T08:37:08.876Z,72.88
2022-12-28T08:42:12.388Z,72.44
2022-12-28T08:47:19.394Z,71.95
2022-12-28T08:52:24.143Z,71.00
2022-12-28T08:57:27.571Z,70.44
2022-12-28T09:02:31.119Z,70.51
2022-12-28T09:07:34.553Z,69.60
2022-12-28T09:12:38.024Z,69.57
2022-12-28T09:17:41.613Z,69.12
2022-12-28T09:22:45.127Z,69.12
2022-12-28T09:27:51.363Z,68.49
2022-12-28T09:32:58.057Z,68.34
2022-12-28T09:38:01.444Z,68.51
2022-12-28T09:43:06.122Z,68.07
2022-12-28T09:48:15.160Z,68.26
2022-12-28T09:53:27.846Z,67.77
2022-12-28T09:58:34.409Z,67.34
2022-12-28T10:03:40.536Z,67.84
2022-12-28T10:08:51.615Z,67.93
2022-12-28T10:14:00.773Z,67.52
2022-12-28T10:19:07.571Z,66.91
2022-12-28T10:29:37.065Z,66.66
2022-12-28T10:34:54.552Z,66.35
2022-12-28T10:40:01.855Z,65.99
2022-12-28T10:45:17.126Z,66.02
2022-12-28T10:50:44.910Z,65.98
2022-12-28T10:55:48.413Z,66.02
2022-12-28T11:01:04.137Z,65.57
2022-12-28T11:06:26.348Z,65.60
2022-12-28T11:11:31.235Z,66.08
2022-12-28T11:16:37.843Z,66.16
2022-12-28T11:21:44.698Z,66.25
2022-12-28T11:26:50.822Z,66.42
2022-12-28T11:31:58.936Z,66.67
2022-12-28T11:37:03.686Z,66.77
2022-12-28T11:47:33.598Z,66.40
2022-12-28T11:52:45.857Z,66.47
2022-12-28T11:57:50.725Z,66.66
2022-12-28T12:02:56.864Z,66.20
2022-12-28T12:08:23.268Z,66.60
2022-12-28T12:13:26.825Z,66.48
2022-12-28T12:18:46.262Z,66.80
2022-12-28T12:23:54.489Z,66.57
2022-12-28T12:29:26.453Z,66.73
2022-12-28T12:34:49.034Z,66.14
2022-12-28T12:40:10.788Z,66.02
2022-12-28T12:45:44.931Z,66.04
2022-12-28T12:51:06.873Z,65.73
2022-12-28T12:56:36.900Z,65.71
2022-12-28T13:02:04.209Z,65.71
2022-12-28T13:07:25.999Z,65.74
2022-12-28T13:12:30.588Z,65.75
2022-12-28T13:17:35.582Z,65.41
2022-12-28T13:22:47.704Z,65.03
2022-12-28T13:27:51.659Z,65.39
2022-12-28T13:32:58.834Z,65.26
2022-12-28T13:38:22.679Z,65.65
2022-12-28T13:43:26.298Z,65.24
2022-12-28T13:48:31.986Z,65.32
2022-12-28T13:53:36.935Z,65.86
2022-12-28T13:58:51.325Z,66.10
2022-12-28T14:04:08.917Z,65.80
2022-12-28T14:09:24.712Z,66.46
2022-12-28T14:14:29.439Z,66.20
2022-12-28T14:19:34.017Z,66.38
2022-12-28T14:25:03.277Z,66.66
2022-12-28T14:30:22.611Z,67.01
2022-12-28T14:35:29.060Z,66.41
2022-12-28T14:40:34.939Z,66.85
2022-12-28T14:46:07.849Z,67.25
2022-12-28T14:51:17.969Z,67.33
2022-12-28T14:56:21.729Z,67.22
2022-12-28T15:01:41.050Z,67.16
2022-12-28T15:06:44.733Z,67.34
2022-12-28T15:11:48.167Z,67.31
2022-12-28T15:16:51.663Z,67.31
2022-12-28T15:21:55.484Z,67.49
2022-12-28T15:26:59.259Z,67.66
